Time;durP1;ratioP1;P1;durP2;ratioP2;P2;SDS_P1;SDS_P2;PMS_P1;PMS_P2;Temp;Humidity;BMP_temperature;BMP_pressure;BME280_temperature;BME280_humidity;BME280_pressure;Samples;Min_cycle;Max_cycle;Signal;HPM_P1;HPM_P2
2022/10/25 00:02:17;;;;;;;36.73;19.90;;;13.60;99.90;;;;;;4347134;28;661217;-67
2022/10/25 00:05:05;;;;;;;43.50;22.48;;;13.60;99.90;;;;;;4369138;28;660900;-68
2022/10/25 00:07:52;;;;;;;45.37;23.83;;;13.50;99.90;;;;;;4347481;28;661401;-68
2022/10/25 00:10:39;;;;;;;52.23;25.27;;;13.50;99.90;;;;;;4369332;28;660631;-67
2022/10/25 00:13:27;;;;;;;56.73;28.17;;;13.60;99.90;;;;;;4352866;28;660969;-67
2022/10/25 00:16:16;;;;;;;56.90;26.40;;;13.60;99.90;;;;;;4365398;28;660645;-67
2022/10/25 00:19:03;;;;;;;59.77;27.20;;;13.60;99.90;;;;;;4345480;28;660767;-67
2022/10/25 00:21:50;;;;;;;60.87;27.43;;;13.50;99.90;;;;;;4350406;28;661191;-68
2022/10/25 00:24:37;;;;;;;72.30;29.57;;;13.60;99.90;;;;;;4367561;28;662185;-68
2022/10/25 00:27:24;;;;;;;66.33;27.83;;;13.50;99.90;;;;;;4367737;28;660623;-67
2022/10/25 00:30:12;;;;;;;55.07;24.53;;;13.50;99.90;;;;;;4349160;28;662631;-68
2022/10/25 00:33:01;;;;;;;59.20;27.43;;;13.60;99.90;;;;;;4364268;28;661039;-68
2022/10/25 00:35:49;;;;;;;59.57;27.47;;;13.60;99.90;;;;;;4361622;28;661507;-68
2022/10/25 00:38:36;;;;;;;54.53;26.80;;;13.60;99.90;;;;;;4347898;28;661076;-68
2022/10/25 00:41:24;;;;;;;64.30;28.43;;;13.60;99.90;;;;;;4369215;28;661073;-68
2022/10/25 00:44:48;;;;;;;56.60;27.47;;;13.60;99.90;;;;;;4345947;28;661089;-68
2022/10/25 00:47:41;;;;;;;67.17;27.50;;;13.60;99.90;;;;;;4326125;28;661405;-68
2022/10/25 00:50:47;;;;;;;59.27;27.97;;;13.60;99.90;;;;;;4340246;28;661843;-68
2022/10/25 00:53:35;;;;;;;58.23;26.07;;;13.50;99.90;;;;;;4344228;28;661008;-67
2022/10/25 00:56:23;;;;;;;57.93;26.37;;;13.50;99.90;;;;;;4349135;28;662002;-67
2022/10/25 00:59:12;;;;;;;56.30;27.10;;;13.60;99.90;;;;;;4347046;28;660915;-68
2022/10/25 01:01:59;;;;;;;53.80;27.00;;;13.60;99.90;;;;;;4366457;28;660969;-67
2022/10/25 01:04:46;;;;;;;54.87;24.53;;;13.60;99.90;;;;;;4348004;28;660752;-67
2022/10/25 01:07:35;;;;;;;51.17;26.90;;;13.50;99.90;;;;;;4368596;28;660894;-67
2022/10/25 01:10:22;;;;;;;53.93;25.53;;;13.50;99.90;;;;;;4345713;28;661847;-67
2022/10/25 01:13:12;;;;;;;48.33;22.73;;;13.50;99.90;;;;;;4366194;28;660646;-67
2022/10/25 01:16:06;;;;;;;42.33;15.90;;;13.50;99.90;;;;;;4364186;28;660595;-67
2022/10/25 01:18:59;;;;;;;51.70;25.73;;;13.50;99.90;;;;;;4342208;28;661233;-67
2022/10/25 01:21:50;;;;;;;49.93;24.20;;;13.50;99.90;;;;;;4319655;28;661887;-68
2022/10/25 01:25:07;;;;;;;51.20;24.57;;;13.40;99.90;;;;;;4348623;28;662413;-67
2022/10/25 01:28:07;;;;;;;50.90;23.93;;;13.40;99.90;;;;;;4342830;28;660868;-67
2022/10/25 01:31:12;;;;;;;57.00;25.33;;;13.40;99.90;;;;;;4343000;28;660823;-67
2022/10/25 01:34:04;;;;;;;48.00;24.60;;;13.30;99.90;;;;;;4342261;28;660836;-67
2022/10/25 01:36:56;;;;;;;44.03;23.80;;;13.30;99.90;;;;;;4324734;28;661086;-67
2022/10/25 01:39:49;;;;;;;45.27;22.97;;;13.40;99.90;;;;;;4326258;28;660832;-67
2022/10/25 01:42:43;;;;;;;48.93;25.10;;;13.30;99.90;;;;;;4330558;28;660930;-68
2022/10/25 01:45:36;;;;;;;50.50;25.87;;;13.30;99.90;;;;;;4310169;28;660988;-67
2022/10/25 01:48:31;;;;;;;56.00;27.20;;;13.30;99.90;;;;;;4327858;28;661124;-67
2022/10/25 01:51:21;;;;;;;52.87;26.27;;;13.20;99.90;;;;;;4322936;28;660763;-67
2022/10/25 01:54:23;;;;;;;60.07;27.93;;;13.20;99.90;;;;;;4326647;28;661485;-67
2022/10/25 01:57:37;;;;;;;64.57;30.47;;;13.20;99.90;;;;;;4306443;28;661153;-67
2022/10/25 02:00:31;;;;;;;58.70;29.43;;;13.20;99.90;;;;;;4346399;28;660948;-67
2022/10/25 02:03:25;;;;;;;68.93;30.20;;;13.30;99.90;;;;;;4329420;28;661855;-67
2022/10/25 02:06:22;;;;;;;66.50;32.37;;;13.20;99.90;;;;;;4326690;28;662622;-67
2022/10/25 02:09:15;;;;;;;58.90;31.20;;;13.20;99.90;;;;;;4347089;28;660339;-67
2022/10/25 02:12:06;;;;;;;66.50;32.77;;;13.20;99.90;;;;;;4332047;28;661808;-67
2022/10/25 02:15:01;;;;;;;65.47;33.03;;;13.20;99.90;;;;;;4334518;28;661498;-68
2022/10/25 02:17:53;;;;;;;71.90;34.20;;;13.20;99.90;;;;;;4327821;28;661542;-67
2022/10/25 02:20:44;;;;;;;79.57;35.35;;;13.10;99.90;;;;;;4329198;28;660684;-67
2022/10/25 02:23:36;;;;;;;78.97;36.40;;;13.10;99.90;;;;;;4330854;28;661620;-68
2022/10/25 02:26:27;;;;;;;64.67;30.03;;;13.10;99.90;;;;;;4329091;28;661567;-67
2022/10/25 02:29:18;;;;;;;77.53;35.53;;;13.10;99.90;;;;;;4331074;28;661753;-67
2022/10/25 02:32:09;;;;;;;90.30;38.20;;;13.10;99.90;;;;;;4309423;28;660914;-68
2022/10/25 02:34:56;;;;;;;100.30;43.97;;;12.90;99.90;;;;;;4329413;28;662301;-67
2022/10/25 02:37:44;;;;;;;89.27;42.57;;;13.00;99.90;;;;;;4353033;28;661799;-67
2022/10/25 02:40:32;;;;;;;92.93;40.73;;;13.00;99.90;;;;;;4350187;28;660714;-67
2022/10/25 02:43:20;;;;;;;99.20;37.57;;;13.00;99.90;;;;;;4366251;28;661168;-67
2022/10/25 02:46:07;;;;;;;101.33;41.67;;;13.00;99.90;;;;;;4370437;28;662224;-67
2022/10/25 02:48:54;;;;;;;108.70;42.43;;;13.00;99.90;;;;;;4364263;28;661528;-67
2022/10/25 02:51:41;;;;;;;109.23;41.87;;;12.90;99.90;;;;;;4350042;28;663436;-67
2022/10/25 02:54:29;;;;;;;111.53;42.57;;;12.90;99.90;;;;;;4365974;28;661687;-67
2022/10/25 02:57:17;;;;;;;109.00;42.20;;;12.90;99.90;;;;;;4349316;28;662392;-67
2022/10/25 03:00:05;;;;;;;95.57;40.97;;;12.90;99.90;;;;;;4364787;28;662544;-68
2022/10/25 03:02:52;;;;;;;101.20;41.70;;;12.90;99.90;;;;;;4351129;28;661460;-68
2022/10/25 03:05:40;;;;;;;89.87;38.93;;;12.80;99.90;;;;;;4361892;28;661924;-67
2022/10/25 03:08:27;;;;;;;78.57;34.33;;;12.80;99.90;;;;;;4373446;28;662209;-68
2022/10/25 03:11:15;;;;;;;79.77;36.17;;;12.80;99.90;;;;;;4367975;28;660938;-68
2022/10/25 03:14:04;;;;;;;89.67;37.70;;;12.80;99.90;;;;;;4348361;28;660905;-67
2022/10/25 03:16:51;;;;;;;85.07;35.80;;;12.70;99.90;;;;;;4347838;28;660926;-67
2022/10/25 03:19:38;;;;;;;100.40;38.20;;;12.60;99.90;;;;;;4362525;28;662063;-67
2022/10/25 03:22:25;;;;;;;105.50;37.70;;;12.60;99.90;;;;;;4344034;28;662978;-68
2022/10/25 03:25:12;;;;;;;105.50;40.03;;;12.60;99.90;;;;;;4369411;28;662803;-67
2022/10/25 03:28:00;;;;;;;97.33;38.47;;;12.60;99.90;;;;;;4366783;28;661735;-67
2022/10/25 03:30:48;;;;;;;119.30;40.53;;;12.60;99.90;;;;;;4340361;28;661342;-67
2022/10/25 03:33:36;;;;;;;136.97;38.03;;;12.60;99.90;;;;;;4347417;28;661661;-68
2022/10/25 03:36:23;;;;;;;99.37;33.60;;;12.50;99.90;;;;;;4366128;28;662458;-67
2022/10/25 03:39:10;;;;;;;98.60;34.73;;;12.50;99.90;;;;;;4358545;28;660683;-68
2022/10/25 03:41:57;;;;;;;94.20;31.90;;;12.50;99.90;;;;;;4368529;28;661399;-67
2022/10/25 03:44:45;;;;;;;114.50;38.23;;;12.50;99.90;;;;;;4364757;28;661053;-67
2022/10/25 03:47:34;;;;;;;112.33;37.77;;;12.50;99.90;;;;;;4367329;28;663151;-67
2022/10/25 03:50:21;;;;;;;104.53;35.67;;;12.40;99.90;;;;;;4344611;28;661939;-67
2022/10/25 03:53:08;;;;;;;116.53;36.97;;;12.40;99.90;;;;;;4366585;28;661800;-67
2022/10/25 03:55:55;;;;;;;115.73;35.83;;;12.40;99.90;;;;;;4348732;28;661802;-68
2022/10/25 03:58:42;;;;;;;106.30;37.87;;;12.40;99.90;;;;;;4369082;28;661492;-67
2022/10/25 04:01:30;;;;;;;102.13;39.80;;;12.40;99.90;;;;;;4365120;28;662886;-68
2022/10/25 04:04:18;;;;;;;96.67;37.67;;;12.40;99.90;;;;;;4343955;28;661640;-68
2022/10/25 04:07:05;;;;;;;103.37;38.33;;;12.50;99.90;;;;;;4348439;28;660611;-68
2022/10/25 04:09:53;;;;;;;108.03;40.07;;;12.50;99.90;;;;;;4367294;28;662846;-68
2022/10/25 04:12:40;;;;;;;122.70;41.30;;;12.40;99.90;;;;;;4363762;28;661527;-68
2022/10/25 04:15:27;;;;;;;124.23;44.37;;;12.30;99.90;;;;;;4370849;28;662726;-66
2022/10/25 04:18:14;;;;;;;128.17;42.93;;;12.40;99.90;;;;;;4367959;28;662512;-67
2022/10/25 04:21:03;;;;;;;128.93;44.03;;;12.30;99.90;;;;;;4343929;28;662098;-67
2022/10/25 04:23:50;;;;;;;104.30;38.87;;;12.30;99.90;;;;;;4347143;28;662554;-68
2022/10/25 04:26:38;;;;;;;87.97;35.83;;;12.40;99.90;;;;;;4363887;28;662386;-67
2022/10/25 04:29:25;;;;;;;85.50;35.70;;;12.40;99.90;;;;;;4361097;28;660466;-67
2022/10/25 04:32:12;;;;;;;92.47;36.30;;;12.40;99.90;;;;;;4366968;28;661788;-67
2022/10/25 04:34:59;;;;;;;82.73;36.90;;;12.30;99.90;;;;;;4367321;28;660782;-67
2022/10/25 04:37:50;;;;;;;74.77;31.83;;;12.30;99.90;;;;;;4350479;28;661293;-67
2022/10/25 04:40:37;;;;;;;84.43;35.73;;;12.30;99.90;;;;;;4341037;28;661424;-68
2022/10/25 04:43:26;;;;;;;87.60;35.47;;;12.30;99.90;;;;;;4366750;28;661222;-68
2022/10/25 04:46:13;;;;;;;81.47;35.60;;;12.30;99.90;;;;;;4369659;28;661685;-67
2022/10/25 04:49:00;;;;;;;69.67;29.97;;;12.30;99.90;;;;;;4351269;28;660782;-68
2022/10/25 04:51:47;;;;;;;69.80;34.97;;;12.40;99.90;;;;;;4372906;28;661938;-67
2022/10/25 04:54:36;;;;;;;75.23;35.00;;;12.30;99.90;;;;;;4366124;28;660964;-67
2022/10/25 04:57:23;;;;;;;66.60;27.83;;;12.30;99.90;;;;;;4347038;28;662205;-67
2022/10/25 05:00:11;;;;;;;70.30;33.57;;;12.30;99.90;;;;;;4348643;28;660576;-68
2022/10/25 05:02:58;;;;;;;81.13;33.93;;;12.40;99.90;;;;;;4368315;28;661600;-68
2022/10/25 05:05:46;;;;;;;57.67;27.70;;;12.30;99.90;;;;;;4346713;28;661428;-67
2022/10/25 05:08:33;;;;;;;61.13;28.80;;;12.40;99.90;;;;;;4369148;28;661589;-67
2022/10/25 05:11:22;;;;;;;59.03;31.07;;;12.40;99.90;;;;;;4355495;28;661706;-67
2022/10/25 05:14:10;;;;;;;57.87;28.77;;;12.40;99.90;;;;;;4364952;28;660589;-67
2022/10/25 05:16:57;;;;;;;64.70;28.77;;;12.40;99.90;;;;;;4369204;28;660694;-67
2022/10/25 05:19:44;;;;;;;59.97;31.07;;;12.30;99.90;;;;;;4369092;28;660714;-67
2022/10/25 05:22:32;;;;;;;58.13;29.40;;;12.40;99.90;;;;;;4351311;28;662057;-67
2022/10/25 05:25:20;;;;;;;60.90;29.20;;;12.40;99.90;;;;;;4364489;28;660770;-67
2022/10/25 05:28:09;;;;;;;58.43;30.83;;;12.30;99.90;;;;;;4341782;28;661246;-67
2022/10/25 05:30:56;;;;;;;56.57;27.40;;;12.30;99.90;;;;;;4350046;28;660881;-67
2022/10/25 05:33:44;;;;;;;54.17;28.53;;;12.30;99.90;;;;;;4365944;28;661573;-68
2022/10/25 05:36:32;;;;;;;51.87;25.67;;;12.20;99.90;;;;;;4346208;28;660601;-69
2022/10/25 05:39:19;;;;;;;55.67;26.30;;;12.30;99.90;;;;;;4366681;28;661131;-69
2022/10/25 05:42:06;;;;;;;48.07;25.63;;;12.20;99.90;;;;;;4347642;28;660960;-69
2022/10/25 05:44:55;;;;;;;42.53;21.63;;;12.20;99.90;;;;;;4368240;28;662117;-69
2022/10/25 05:47:42;;;;;;;41.00;21.47;;;12.30;99.90;;;;;;4350096;28;661067;-69
2022/10/25 05:50:29;;;;;;;37.40;19.30;;;12.30;99.90;;;;;;4363174;28;660796;-69
2022/10/25 05:53:16;;;;;;;36.43;19.63;;;12.30;99.90;;;;;;4344495;28;661965;-69
2022/10/25 05:56:04;;;;;;;37.63;19.00;;;12.30;99.90;;;;;;4376146;28;661393;-69
2022/10/25 05:58:51;;;;;;;40.77;18.87;;;12.30;99.90;;;;;;4352235;28;660723;-69
2022/10/25 06:01:40;;;;;;;34.90;18.90;;;12.30;99.90;;;;;;4371122;28;661607;-69
2022/10/25 06:04:28;;;;;;;34.07;16.93;;;12.30;99.90;;;;;;4348497;28;661299;-69
2022/10/25 06:07:15;;;;;;;35.10;17.87;;;12.30;99.90;;;;;;4361297;28;660598;-69
2022/10/25 06:10:02;;;;;;;34.90;17.07;;;12.30;99.90;;;;;;4366834;28;661541;-69
2022/10/25 06:12:50;;;;;;;34.43;17.23;;;12.30;99.90;;;;;;4371593;28;660964;-69
2022/10/25 06:15:38;;;;;;;31.27;16.57;;;12.30;99.90;;;;;;4374442;28;661767;-69
2022/10/25 06:18:27;;;;;;;33.47;17.00;;;12.30;99.90;;;;;;4363468;28;660742;-70
2022/10/25 06:21:15;;;;;;;37.07;17.87;;;12.30;99.90;;;;;;4369070;28;660788;-71
2022/10/25 06:24:03;;;;;;;34.60;18.67;;;12.30;99.90;;;;;;4351597;28;661496;-70
2022/10/25 06:26:50;;;;;;;36.13;18.00;;;12.40;99.90;;;;;;4360553;28;660802;-70
2022/10/25 06:29:37;;;;;;;44.63;20.47;;;12.50;99.90;;;;;;4370473;28;660953;-69
2022/10/25 06:32:24;;;;;;;38.23;21.13;;;12.50;99.90;;;;;;4367824;28;660955;-70
2022/10/25 06:35:13;;;;;;;43.60;22.70;;;12.60;99.90;;;;;;4350048;28;661105;-70
2022/10/25 06:38:00;;;;;;;45.38;23.15;;;12.60;99.90;;;;;;4347350;28;661515;-69
2022/10/25 06:40:48;;;;;;;41.63;25.27;;;12.70;99.90;;;;;;4361196;28;661649;-69
2022/10/25 06:43:35;;;;;;;42.63;22.90;;;12.60;99.90;;;;;;4358303;28;660551;-69
2022/10/25 06:46:23;;;;;;;49.20;25.57;;;12.60;99.90;;;;;;4371836;28;661783;-69
2022/10/25 06:49:10;;;;;;;45.77;25.97;;;12.50;99.90;;;;;;4350942;28;661617;-69
2022/10/25 06:51:59;;;;;;;47.67;26.50;;;12.50;99.90;;;;;;4360619;28;661621;-69
2022/10/25 06:54:46;;;;;;;54.97;28.57;;;12.50;99.90;;;;;;4349022;28;661013;-69
2022/10/25 06:57:33;;;;;;;57.43;28.67;;;12.60;99.90;;;;;;4367782;28;661252;-69
2022/10/25 07:00:21;;;;;;;47.50;25.93;;;12.70;99.90;;;;;;4348567;28;661548;-68
2022/10/25 07:03:08;;;;;;;43.80;26.77;;;12.90;99.90;;;;;;4371871;28;662269;-69
2022/10/25 07:05:57;;;;;;;56.87;31.43;;;12.90;99.90;;;;;;4350767;28;660432;-69
2022/10/25 07:08:46;;;;;;;44.30;26.73;;;12.80;99.90;;;;;;4367977;28;660649;-69
2022/10/25 07:11:34;;;;;;;45.47;26.83;;;12.80;99.90;;;;;;4347759;28;661563;-69
2022/10/25 07:14:21;;;;;;;41.90;23.00;;;12.80;99.90;;;;;;4349744;28;661370;-68
2022/10/25 07:17:08;;;;;;;30.27;16.42;;;12.70;99.90;;;;;;4364345;28;660763;-68
2022/10/25 07:19:56;;;;;;;38.60;21.73;;;12.80;99.90;;;;;;4348438;28;661069;-69
2022/10/25 07:22:45;;;;;;;32.73;17.57;;;12.70;99.90;;;;;;4367272;28;660667;-69
2022/10/25 07:25:33;;;;;;;32.03;18.33;;;12.80;99.90;;;;;;4342945;28;661547;-69
2022/10/25 07:28:20;;;;;;;30.77;16.50;;;12.90;99.90;;;;;;4345778;28;661123;-69
2022/10/25 07:31:08;;;;;;;33.40;17.47;;;13.00;99.90;;;;;;4367990;28;661625;-69
2022/10/25 07:33:57;;;;;;;28.83;16.50;;;13.10;99.90;;;;;;4356570;28;661845;-69
2022/10/25 07:36:44;;;;;;;27.70;16.17;;;13.20;99.90;;;;;;4366178;28;661139;-69
2022/10/25 07:39:31;;;;;;;31.77;15.87;;;13.30;99.90;;;;;;4344556;28;660414;-68
2022/10/25 07:42:20;;;;;;;27.40;14.00;;;13.40;99.90;;;;;;4363514;28;661991;-69
2022/10/25 07:45:08;;;;;;;21.30;11.10;;;13.60;99.90;;;;;;4345463;28;661006;-69
2022/10/25 07:47:55;;;;;;;21.60;12.60;;;13.70;99.90;;;;;;4331148;28;660565;-68
2022/10/25 07:50:42;;;;;;;25.77;13.73;;;13.80;99.90;;;;;;4363179;28;661967;-69
2022/10/25 07:53:30;;;;;;;27.40;14.23;;;13.60;99.90;;;;;;4364529;28;660521;-69
2022/10/25 07:56:19;;;;;;;19.67;11.47;;;13.50;99.90;;;;;;4363630;28;660843;-69
2022/10/25 07:59:07;;;;;;;18.93;9.90;;;13.70;99.90;;;;;;4349213;28;661201;-68
2022/10/25 08:01:54;;;;;;;17.83;10.20;;;14.00;99.90;;;;;;4363950;28;660061;-69
2022/10/25 08:04:42;;;;;;;14.63;8.87;;;14.30;99.90;;;;;;4348524;28;660889;-69
2022/10/25 08:07:29;;;;;;;16.37;7.53;;;14.50;99.90;;;;;;4366730;28;659243;-69
2022/10/25 08:10:18;;;;;;;13.13;8.33;;;14.50;99.90;;;;;;4352928;28;659272;-69
2022/10/25 08:13:05;;;;;;;17.10;8.50;;;14.70;99.90;;;;;;4354536;28;660219;-69
2022/10/25 08:15:54;;;;;;;13.33;7.80;;;15.10;99.90;;;;;;4373658;28;659958;-69
2022/10/25 08:18:42;;;;;;;11.40;7.00;;;15.40;99.90;;;;;;4353011;28;660091;-69
2022/10/25 08:21:29;;;;;;;11.73;6.43;;;15.90;99.90;;;;;;4371673;28;659496;-69
2022/10/25 08:24:17;;;;;;;14.03;8.00;;;16.00;99.90;;;;;;4348101;28;660003;-70
2022/10/25 08:27:04;;;;;;;14.03;8.83;;;15.60;99.90;;;;;;4372296;28;659835;-68
2022/10/25 08:29:51;;;;;;;12.60;7.93;;;15.40;99.90;;;;;;4352876;28;659416;-69
2022/10/25 08:32:40;;;;;;;11.20;6.90;;;15.20;99.90;;;;;;4368704;28;659987;-69
2022/10/25 08:35:27;;;;;;;19.37;7.50;;;14.90;99.90;;;;;;4350857;28;660624;-69
2022/10/25 08:38:14;;;;;;;10.93;6.97;;;14.60;99.90;;;;;;4373014;28;659435;-69
2022/10/25 08:41:05;;;;;;;13.77;6.60;;;14.60;99.90;;;;;;4350247;28;659473;-68
2022/10/25 08:44:04;;;;;;;10.00;6.03;;;14.60;99.90;;;;;;4347944;28;660278;-68
2022/10/25 08:46:55;;;;;;;17.03;7.83;;;14.20;99.90;;;;;;4327814;28;660179;-68
2022/10/25 08:49:49;;;;;;;14.53;9.23;;;13.90;99.90;;;;;;4347690;28;660687;-69
2022/10/25 08:52:38;;;;;;;13.83;9.17;;;13.60;99.90;;;;;;4355153;28;659719;-69
2022/10/25 08:55:33;;;;;;;18.53;10.03;;;13.40;99.90;;;;;;4348425;28;659485;-69
2022/10/25 08:58:22;;;;;;;20.87;11.43;;;13.20;99.90;;;;;;4328883;28;661192;-68
2022/10/25 09:01:13;;;;;;;20.13;11.47;;;13.00;99.90;;;;;;4367435;28;660512;-68
2022/10/25 09:04:00;;;;;;;22.43;11.23;;;13.00;99.90;;;;;;4341761;28;660729;-69
2022/10/25 09:06:51;;;;;;;18.90;10.43;;;12.90;99.90;;;;;;4371852;28;661848;-68
2022/10/25 09:09:42;;;;;;;18.43;9.60;;;12.90;99.90;;;;;;4337423;28;661589;-69
2022/10/25 09:12:32;;;;;;;14.97;9.13;;;12.70;99.90;;;;;;4345192;28;660854;-69
2022/10/25 09:15:23;;;;;;;15.13;7.97;;;12.70;99.90;;;;;;4345046;28;660049;-69
2022/10/25 09:18:15;;;;;;;12.87;7.87;;;12.60;99.90;;;;;;4324432;28;660461;-68
2022/10/25 09:21:02;;;;;;;13.77;7.80;;;12.50;99.90;;;;;;4346512;28;660383;-68
2022/10/25 09:24:01;;;;;;;11.33;7.20;;;12.60;99.90;;;;;;4370639;28;659411;-69
2022/10/25 09:26:54;;;;;;;14.67;7.47;;;12.60;99.90;;;;;;4351235;28;660358;-68
2022/10/25 09:29:44;;;;;;;13.03;7.47;;;12.50;99.90;;;;;;4325022;28;660190;-69
2022/10/25 09:32:34;;;;;;;12.53;7.10;;;12.70;99.90;;;;;;4346101;28;660120;-69
2022/10/25 09:35:23;;;;;;;11.82;6.88;;;12.80;99.90;;;;;;4352748;28;659577;-69
2022/10/25 09:38:12;;;;;;;16.45;7.15;;;13.00;99.90;;;;;;4355024;28;659969;-68
2022/10/25 09:41:03;;;;;;;17.10;7.67;;;13.00;99.90;;;;;;4366264;28;661035;-69
2022/10/25 09:43:53;;;;;;;10.93;7.20;;;13.10;99.90;;;;;;4329819;28;659542;-69
2022/10/25 09:46:42;;;;;;;15.32;6.93;;;13.10;99.90;;;;;;4352924;28;660391;-69
2022/10/25 09:49:31;;;;;;;13.00;7.13;;;13.10;99.90;;;;;;4367685;28;659335;-68
2022/10/25 09:52:22;;;;;;;12.60;7.30;;;13.40;99.90;;;;;;4347098;28;660180;-69
2022/10/25 09:55:35;;;;;;;15.30;8.33;;;13.30;99.90;;;;;;4346187;28;661312;-68
2022/10/25 09:58:24;;;;;;;15.77;9.33;;;13.20;99.90;;;;;;4338133;28;659708;-69
2022/10/25 10:01:14;;;;;;;20.30;10.45;;;13.30;99.90;;;;;;4349917;28;659981;-69
2022/10/25 10:04:04;;;;;;;18.20;11.87;;;13.20;99.90;;;;;;4347014;28;661003;-68
2022/10/25 10:06:53;;;;;;;17.87;10.57;;;13.10;99.90;;;;;;4348788;28;661086;-69
2022/10/25 10:09:40;;;;;;;21.13;11.82;;;13.00;99.90;;;;;;4346947;28;660933;-69
2022/10/25 10:12:31;;;;;;;17.73;13.33;;;13.20;99.90;;;;;;4367445;28;662604;-69
2022/10/25 10:15:21;;;;;;;17.60;10.70;;;13.30;99.90;;;;;;4344292;28;661472;-69
2022/10/25 10:18:36;;;;;;;23.13;13.10;;;13.50;99.90;;;;;;4339667;28;661281;-69
2022/10/25 10:21:23;;;;;;;19.47;11.03;;;13.60;99.90;;;;;;4313837;28;660770;-69
2022/10/25 10:24:15;;;;;;;21.37;13.23;;;13.70;99.90;;;;;;4341989;28;663159;-69
2022/10/25 10:27:05;;;;;;;22.03;14.07;;;13.80;99.90;;;;;;4343842;28;660977;-69
2022/10/25 10:29:55;;;;;;;25.23;14.47;;;13.90;99.90;;;;;;4347493;28;661445;-69
2022/10/25 10:32:43;;;;;;;23.43;15.50;;;14.00;99.90;;;;;;4345766;28;661645;-69
2022/10/25 10:35:32;;;;;;;23.30;15.33;;;13.70;99.90;;;;;;4350998;28;661479;-69
2022/10/25 10:38:26;;;;;;;29.30;16.57;;;14.10;99.90;;;;;;4366592;28;660619;-69
2022/10/25 10:41:14;;;;;;;34.13;19.57;;;14.10;99.90;;;;;;4347817;28;660767;-69
2022/10/25 10:44:12;;;;;;;31.93;20.80;;;14.10;99.90;;;;;;4349182;28;661102;-69
2022/10/25 10:46:59;;;;;;;37.13;20.27;;;14.10;99.90;;;;;;4345299;28;660756;-69
2022/10/25 10:49:48;;;;;;;38.90;21.80;;;14.20;99.90;;;;;;4343442;28;662136;-69
2022/10/25 10:52:39;;;;;;;36.93;22.13;;;14.20;99.90;;;;;;4346371;28;660695;-68
2022/10/25 10:55:28;;;;;;;30.27;18.13;;;14.00;99.90;;;;;;4341999;28;660856;-68
2022/10/25 10:58:17;;;;;;;33.80;20.10;;;14.10;99.90;;;;;;4344832;28;661398;-68
2022/10/25 11:01:05;;;;;;;31.10;18.97;;;14.40;99.90;;;;;;4368330;28;660765;-69
2022/10/25 11:03:56;;;;;;;30.37;18.50;;;14.90;99.90;;;;;;4341847;28;661901;-69
2022/10/25 11:06:44;;;;;;;28.13;17.67;;;15.10;99.90;;;;;;4341084;28;662144;-69
2022/10/25 11:09:32;;;;;;;26.77;12.27;;;15.50;99.90;;;;;;4346155;28;662082;-69
2022/10/25 11:12:19;;;;;;;18.87;11.80;;;16.00;99.90;;;;;;4365769;28;660555;-68
2022/10/25 11:15:10;;;;;;;15.57;10.33;;;16.50;99.90;;;;;;4347597;28;660685;-68
2022/10/25 11:17:59;;;;;;;16.20;10.03;;;17.00;99.90;;;;;;4343140;28;660874;-68
2022/10/25 11:20:48;;;;;;;16.80;10.07;;;16.70;99.90;;;;;;4344962;28;661280;-69
2022/10/25 11:23:40;;;;;;;18.27;10.57;;;16.60;99.90;;;;;;4346880;28;660944;-69
2022/10/25 11:26:31;;;;;;;20.70;11.17;;;16.00;99.90;;;;;;4344423;28;660944;-69
2022/10/25 11:29:26;;;;;;;20.30;12.67;;;15.80;99.90;;;;;;4347623;28;660681;-69
2022/10/25 11:32:28;;;;;;;19.20;11.20;;;15.60;99.90;;;;;;4347081;28;661077;-69
2022/10/25 11:35:21;;;;;;;20.13;12.63;;;16.00;99.90;;;;;;4326331;28;660430;-69
2022/10/25 11:38:11;;;;;;;20.63;12.27;;;16.00;99.90;;;;;;4343892;28;661878;-69
2022/10/25 11:41:04;;;;;;;19.27;12.50;;;15.60;99.90;;;;;;4347308;28;662116;-69
2022/10/25 11:43:57;;;;;;;19.43;13.23;;;15.90;99.90;;;;;;4313540;28;661612;-69
2022/10/25 11:46:46;;;;;;;24.97;13.37;;;15.70;99.90;;;;;;4339231;28;660928;-69
2022/10/25 11:49:43;;;;;;;19.63;12.87;;;16.20;99.90;;;;;;4336413;28;662240;-69
2022/10/25 11:52:48;;;;;;;16.33;11.40;;;15.80;99.90;;;;;;4334597;28;663470;-69
2022/10/25 11:55:38;;;;;;;13.90;9.37;;;16.30;99.90;;;;;;4325461;28;660913;-68
2022/10/25 11:58:33;;;;;;;20.10;10.57;;;17.10;99.90;;;;;;4350856;28;659835;-68
2022/10/25 12:01:29;;;;;;;14.73;10.27;;;17.50;99.90;;;;;;4327275;28;660458;-69
2022/10/25 12:04:26;;;;;;;14.03;9.93;;;17.60;99.90;;;;;;4329984;28;661333;-69
2022/10/25 12:07:14;;;;;;;14.93;9.87;;;17.60;99.90;;;;;;4349835;28;659609;-69
2022/10/25 12:10:05;;;;;;;14.43;8.63;;;17.80;99.90;;;;;;4352921;28;659714;-69
2022/10/25 12:12:53;;;;;;;14.57;9.70;;;18.40;99.90;;;;;;4351002;28;660678;-69
2022/10/25 12:15:45;;;;;;;15.67;10.33;;;17.20;99.90;;;;;;4347191;28;659943;-69
2022/10/25 12:18:33;;;;;;;15.53;10.03;;;16.90;99.90;;;;;;4346048;28;662984;-68
2022/10/25 12:21:25;;;;;;;18.13;9.93;;;16.70;99.90;;;;;;4342088;28;660991;-69
2022/10/25 12:24:17;;;;;;;14.20;7.80;;;16.30;99.90;;;;;;4346151;28;659840;-70
2022/10/25 12:27:04;;;;;;;15.77;8.53;;;15.90;99.90;;;;;;4336625;28;659245;-69
2022/10/25 12:29:54;;;;;;;11.13;6.80;;;15.90;99.90;;;;;;4348765;28;660592;-69
2022/10/25 12:32:43;;;;;;;10.77;6.73;;;15.80;99.90;;;;;;4349375;28;659478;-70
2022/10/25 12:35:33;;;;;;;9.18;6.10;;;15.60;99.90;;;;;;4350778;28;660025;-69
2022/10/25 12:38:33;;;;;;;9.93;5.93;;;15.60;99.90;;;;;;4350988;28;659862;-69
2022/10/25 12:41:21;;;;;;;13.23;6.23;;;15.70;99.90;;;;;;4331552;28;659978;-69
2022/10/25 12:44:14;;;;;;;12.27;6.43;;;15.80;99.90;;;;;;4366329;28;660497;-69
2022/10/25 12:47:12;;;;;;;12.67;6.83;;;16.70;99.90;;;;;;4350423;28;659658;-69
2022/10/25 12:50:23;;;;;;;11.70;6.93;;;16.80;99.90;;;;;;4338754;28;661066;-69
2022/10/25 12:53:27;;;;;;;10.50;6.53;;;18.70;99.90;;;;;;4298293;28;659513;-69
2022/10/25 12:56:20;;;;;;;13.40;7.40;;;19.50;99.90;;;;;;4345950;28;660192;-69
2022/10/25 12:59:08;;;;;;;11.83;6.73;;;18.00;99.90;;;;;;4345943;28;660257;-70
2022/10/25 13:02:02;;;;;;;11.67;7.07;;;17.80;99.90;;;;;;4349507;28;659414;-70
2022/10/25 13:05:11;;;;;;;12.30;6.97;;;17.30;99.90;;;;;;4339488;28;659937;-70
2022/10/25 13:08:01;;;;;;;12.30;6.07;;;17.40;99.90;;;;;;4342906;28;660089;-69
2022/10/25 13:10:50;;;;;;;14.93;5.97;;;17.60;99.90;;;;;;4337018;28;660047;-69
2022/10/25 13:13:40;;;;;;;11.30;6.15;;;17.30;99.90;;;;;;4351940;28;660483;-69
2022/10/25 13:16:28;;;;;;;11.53;6.30;;;16.50;99.90;;;;;;4343935;28;661568;-69
2022/10/25 13:19:27;;;;;;;10.83;5.73;;;16.20;99.90;;;;;;4354229;28;659631;-69
2022/10/25 13:22:30;;;;;;;11.20;7.40;;;15.90;99.90;;;;;;4342172;28;659692;-69
2022/10/25 13:25:41;;;;;;;10.53;7.30;;;15.80;99.90;;;;;;4325719;28;659805;-69
2022/10/25 13:28:29;;;;;;;17.00;9.10;;;15.70;99.90;;;;;;4339367;28;660693;-69
2022/10/25 13:31:47;;;;;;;24.80;10.60;;;15.40;99.90;;;;;;4352318;28;660043;-69
2022/10/25 13:34:35;;;;;;;15.05;6.85;;;17.10;99.90;;;;;;4343415;28;660658;-69
2022/10/25 13:37:41;;;;;;;17.83;6.83;;;18.30;99.90;;;;;;4374087;28;660841;-70
2022/10/25 13:40:29;;;;;;;15.67;6.97;;;17.80;99.90;;;;;;4346331;28;660255;-70
2022/10/25 13:43:18;;;;;;;10.00;5.03;;;17.40;99.90;;;;;;4346040;28;659823;-70
2022/10/25 13:46:05;;;;;;;13.27;5.93;;;15.80;99.90;;;;;;4350670;28;659360;-70
2022/10/25 13:48:53;;;;;;;10.03;5.47;;;15.20;99.90;;;;;;4363786;28;660449;-69
2022/10/25 13:51:41;;;;;;;10.33;5.90;;;15.10;99.90;;;;;;4353841;28;660264;-70
2022/10/25 13:54:31;;;;;;;20.73;5.80;;;14.80;99.90;;;;;;4376986;28;660223;-70
2022/10/25 13:57:48;;;;;;;10.30;6.40;;;14.70;99.90;;;;;;4350070;28;660069;-69
2022/10/25 14:00:39;;;;;;;11.97;7.50;;;14.50;99.90;;;;;;4329833;28;659707;-70
2022/10/25 14:03:33;;;;;;;15.17;8.40;;;14.50;99.90;;;;;;4353664;28;661398;-70
2022/10/25 14:06:24;;;;;;;11.60;7.43;;;14.40;99.90;;;;;;4327594;28;659731;-70
2022/10/25 14:09:17;;;;;;;17.37;7.53;;;14.30;99.90;;;;;;4350276;28;661114;-70
2022/10/25 14:12:08;;;;;;;16.40;7.93;;;14.30;99.90;;;;;;4349204;28;659873;-71
2022/10/25 14:15:01;;;;;;;13.23;8.03;;;14.20;99.90;;;;;;4332717;28;660463;-69